Latest Weather Observations for Applethorpe

IDN60801

Issued at 10:12 am EST Monday 16 September 2019 (issued every 10 minutes, with the page automatically refreshed every 10 minutes)

About weather observations | Map of weather stations | Latest weather observations for NSW | Other Formats
Station Details ID: 041175 Name: APPLETHORPE Lat: -28.62 Lon: 151.95 Height: 871.6 m
Data from the previous 72 hours. | See also: Recent months at Applethorpe
Date/Time
EST
Temp
°C
App
Temp
°C
Dew
Point
°C
Rel
Hum
%
Delta-T
°C
Wind Press
QNH
hPa
Press
MSL
hPa
Rain since
9am
mm
Dir  Spd
km/h
Gust
km/h
Spd
kts
Gust
kts
16/10:00am 20.3 17.4 4.4 35 8.0 NW 9 17 5 9 1023.8 1022.3 0.0
16/09:30am 19.3 16.6 5.4 40 7.1 NW 9 20 5 11 1024.1 1022.7 0.0
16/09:00am 18.2 15.7 6.4 46 6.1 NW 9 19 5 10 1024.4 1023.0 0.0
16/08:30am 17.2 15.2 7.3 52 5.2 NW 7 19 4 10 1024.6 1023.1 0.0
16/08:00am 15.9 14.2 8.2 60 4.1 NNW 7 15 4 8 1024.3 1022.9 0.0
16/07:30am 12.1 11.6 9.5 84 1.4 SW 2 4 1 2 1024.4 1023.0 0.0
16/07:27am 11.8 11.3 9.5 86 1.2 SW 2 4 1 2 1024.4 1023.0 0.0
16/07:00am 6.7 5.7 5.8 94 0.4 CALM 0 0 0 0 1023.9 1022.4 0.0
16/06:30am 4.4 2.2 3.1 91 0.6 NE 4 4 2 2 1024.0 1022.5 0.0
16/06:00am 4.2 2.6 2.7 90 0.6 CALM 0 0 0 0 1023.9 1022.4 0.0
16/05:30am 4.7 3.2 3.2 90 0.7 CALM 0 0 0 0 1023.8 1022.3 0.0
16/05:00am 4.6 3.0 2.6 87 0.9 CALM 0 0 0 0 1023.6 1022.1 0.0
16/04:30am 5.6 4.3 3.9 89 0.8 CALM 0 0 0 0 1023.4 1021.9 0.0
16/04:00am 6.3 4.7 4.5 88 0.8 N 2 6 1 3 1023.2 1021.8 0.0
16/03:30am 6.3 5.0 4.0 85 1.0 CALM 0 0 0 0 1023.1 1021.7 0.0
16/03:00am 7.0 5.9 5.0 87 0.9 CALM 0 4 0 2 1023.1 1021.7 0.0
16/02:30am 7.0 5.8 4.8 86 1.0 CALM 0 2 0 1 1023.2 1021.8 0.0
16/02:00am 6.2 4.7 3.2 81 1.3 CALM 0 0 0 0 1023.6 1022.1 0.0
16/01:30am 5.6 3.9 2.1 78 1.5 CALM 0 0 0 0 1024.1 1022.7 0.0
16/01:00am 5.8 4.1 1.7 75 1.7 CALM 0 0 0 0 1024.4 1023.0 0.0
16/12:30am 5.9 4.1 1.4 73 1.9 CALM 0 0 0 0 1024.7 1023.2 0.0
16/12:00am 6.6 4.7 0.5 65 2.5 CALM 0 0 0 0 1024.8 1023.3 0.0
 
Date/Time
EST
Temp
°C
App
Temp
°C
Dew
Point
°C
Rel
Hum
%
Delta-T
°C
Wind Press
QNH
hPa
Press
MSL
hPa
Rain since
9am
mm
Dir  Spd
km/h
Gust
km/h
Spd
kts
Gust
kts
15/11:30pm 7.9 6.2 2.0 66 2.6 CALM 0 0 0 0 1024.8 1023.3 0.0
15/11:00pm 9.1 7.1 2.4 63 3.0 ENE 2 4 1 2 1024.8 1023.3 0.0
15/10:30pm 7.5 4.8 0.0 59 3.1 E 4 7 2 4 1024.9 1023.4 0.0
15/10:00pm 7.9 5.8 -0.8 54 3.5 CALM 0 2 0 1 1024.9 1023.4 0.0
15/09:30pm 8.8 6.3 -1.3 49 4.1 ENE 2 4 1 2 1025.0 1023.5 0.0
15/09:00pm 10.4 7.6 -2.9 39 5.3 ENE 2 4 1 2 1025.0 1023.5 0.0
15/08:30pm 10.0 7.2 -3.3 39 5.2 E 2 6 1 3 1025.1 1023.6 0.0
15/08:00pm 10.2 7.2 -4.9 34 5.7 NNE 2 6 1 3 1024.9 1023.4 0.0
15/07:30pm 11.4 8.8 -4.7 32 6.2 CALM 0 2 0 1 1024.6 1023.1 0.0
15/07:00pm 13.8 10.7 -5.9 25 7.6 NW 2 6 1 3 1024.3 1022.9 0.0
15/06:30pm 15.3 11.8 -6.3 22 8.4 NW 4 6 2 3 1024.1 1022.7 0.0
15/06:00pm 17.7 14.0 -8.4 16 9.9 WNW 4 6 2 3 1023.8 1022.3 0.0
15/05:30pm 20.2 16.2 -8.1 14 11.2 W 6 11 3 6 1023.6 1022.1 0.0
15/05:00pm 22.4 18.1 -8.4 12 12.3 WNW 7 15 4 8 1023.4 1021.9 0.0
15/04:30pm 22.9 18.7 -8.0 12 12.6 WSW 7 13 4 7 1023.1 1021.7 0.0
15/04:00pm 23.5 19.4 -6.5 13 12.6 WSW 7 13 4 7 1022.8 1021.3 0.0
15/03:30pm 23.2 18.3 -6.7 13 12.5 W 11 20 6 11 1022.7 1021.2 0.0
15/03:00pm 23.6 19.2 -5.4 14 12.4 W 9 20 5 11 1022.6 1021.1 0.0
15/02:30pm 23.3 18.9 -5.7 14 12.4 W 9 17 5 9 1022.7 1021.2 0.0
15/02:00pm 23.9 19.9 -5.2 14 12.6 WNW 7 15 4 8 1022.9 1021.4 0.0
15/01:30pm 23.2 19.4 -4.0 16 12.0 W 7 13 4 7 1023.4 1021.9 0.0
15/01:00pm 23.5 19.6 -1.4 19 11.5 NNW 9 19 5 10 1023.9 1022.4 0.0
15/12:30pm 22.6 18.6 0.4 23 10.6 N 11 19 6 10 1024.3 1022.9 0.0
15/12:00pm 22.4 19.1 0.3 23 10.4 N 7 17 4 9 1024.8 1023.3 0.0
15/11:30am 21.7 17.3 -6.0 15 11.6 SW 9 15 5 8 1025.2 1023.8 0.0
15/11:00am 21.5 18.0 -1.7 21 10.5 NE 7 17 4 9 1025.6 1024.2 0.0
15/10:30am 20.1 16.2 -4.2 19 10.4 ESE 7 11 4 6 1026.0 1024.5 0.0
15/10:00am 19.4 16.4 0.9 29 8.6 NE 6 9 3 5 1026.2 1024.8 0.0
15/09:30am 18.6 16.5 4.0 38 7.2 ENE 4 7 2 4 1026.3 1024.9 0.0
15/09:00am 15.6 14.2 7.1 57 4.4 NE 4 6 2 3 1026.3 1024.9 0.2
15/08:30am 12.3 12.1 9.1 81 1.7 CALM 0 0 0 0 1026.4 1025.0 0.2
15/08:00am 8.7 8.1 7.6 93 0.5 CALM 0 0 0 0 1026.3 1024.9 0.2
15/07:30am 7.3 6.5 6.4 94 0.4 CALM 0 0 0 0 1026.2 1024.8 0.2
15/07:00am 6.9 6.0 6.0 94 0.4 CALM 0 0 0 0 1025.7 1024.3 0.2
15/06:30am 6.6 4.9 5.7 94 0.4 ENE 4 6 2 3 1025.4 1024.0 0.2
15/06:00am 6.8 5.1 5.9 94 0.4 ENE 4 6 2 3 1025.1 1023.6 0.0
15/05:30am 5.9 4.0 5.0 94 0.4 NE 4 7 2 4 1024.8 1023.3 0.0
15/05:00am 3.3 1.6 2.1 92 0.5 CALM 0 0 0 0 1024.6 1023.1 0.0
15/04:30am 3.5 1.9 2.2 91 0.5 CALM 0 0 0 0 1024.2 1022.8 0.0
15/04:00am 4.1 2.6 2.8 91 0.6 CALM 0 0 0 0 1024.1 1022.7 0.0
15/03:30am 3.9 2.3 2.4 90 0.6 CALM 0 2 0 1 1023.9 1022.4 0.0
15/03:00am 4.3 2.7 2.3 87 0.8 CALM 0 0 0 0 1024.0 1022.5 0.0
15/02:30am 5.3 3.5 3.6 89 0.8 NE 2 4 1 2 1024.2 1022.8 0.0
15/02:00am 5.7 4.0 3.9 88 0.8 ENE 2 4 1 2 1024.6 1023.1 0.0
15/01:30am 7.3 5.2 5.8 90 0.7 ENE 6 7 3 4 1024.7 1023.2 0.0
15/01:00am 7.0 4.8 5.3 89 0.8 ENE 6 7 3 4 1024.9 1023.4 0.0
15/12:30am 7.3 5.9 5.3 87 0.9 ENE 2 4 1 2 1025.1 1023.6 0.0
15/12:00am 7.7 6.0 5.7 87 0.9 E 4 7 2 4 1025.2 1023.8 0.0
 
Date/Time
EST
Temp
°C
App
Temp
°C
Dew
Point
°C
Rel
Hum
%
Delta-T
°C
Wind Press
QNH
hPa
Press
MSL
hPa
Rain since
9am
mm
Dir  Spd
km/h
Gust
km/h
Spd
kts
Gust
kts
14/11:30pm 7.3 5.4 5.0 85 1.1 ENE 4 9 2 5 1025.3 1023.9 0.0
14/11:00pm 6.7 4.6 3.7 81 1.3 ENE 4 7 2 4 1025.3 1023.9 0.0
14/10:30pm 6.3 3.9 2.2 75 1.8 ENE 4 6 2 3 1025.4 1024.0 0.0
14/10:00pm 7.4 5.0 2.1 69 2.3 ENE 4 6 2 3 1025.5 1024.1 0.0
14/09:30pm 7.7 5.8 0.7 61 3.0 CALM 0 4 0 2 1025.6 1024.2 0.0
14/09:00pm 9.7 7.1 0.9 54 3.8 E 4 11 2 6 1025.4 1024.0 0.0
14/08:30pm 10.1 7.2 -1.3 45 4.7 ENE 4 6 2 3 1025.4 1024.0 0.0
14/08:00pm 11.7 8.7 -2.1 38 5.6 E 4 9 2 5 1025.4 1024.0 0.0
14/07:30pm 12.5 9.0 -2.5 35 6.2 E 6 9 3 5 1025.1 1023.6 0.0
14/07:00pm 14.1 10.1 -2.3 32 6.8 ENE 9 17 5 9 1024.4 1023.0 0.0
14/06:30pm 15.7 11.3 -2.7 28 7.8 ENE 11 19 6 10 1024.0 1022.5 0.0
14/06:00pm 18.0 14.2 -3.4 23 9.1 E 7 15 4 8 1023.1 1021.7 0.0
14/05:30pm 20.7 15.8 -12.0 10 12.0 WSW 9 15 5 8 1022.5 1021.0 0.0
14/05:00pm 22.4 16.7 -12.0 9 12.9 WSW 13 20 7 11 1022.0 1020.5 0.0
14/04:30pm 23.0 17.7 -11.5 9 13.1 SW 11 22 6 12 1021.7 1020.2 0.0
14/04:00pm 23.0 17.5 -10.2 10 12.9 SW 13 20 7 11 1021.7 1020.2 0.0
14/03:30pm 23.5 17.6 -9.8 10 13.2 WSW 15 26 8 14 1021.6 1020.1 0.0
14/03:00pm 23.6 18.2 -8.5 11 13.0 SW 13 26 7 14 1021.6 1020.1 0.0
14/02:30pm 23.4 17.2 -8.7 11 13.0 WSW 17 28 9 15 1021.5 1020.0 0.0
14/02:00pm 23.3 17.1 -8.8 11 12.9 WSW 17 28 9 15 1021.6 1020.1 0.0
14/01:30pm 23.0 16.3 -10.2 10 13.0 SW 19 32 10 17 1021.8 1020.3 0.0
14/01:00pm 23.7 17.4 -9.7 10 13.2 SW 17 32 9 17 1022.0 1020.5 0.0
14/12:30pm 22.7 16.4 -10.4 10 12.8 SW 17 30 9 16 1022.3 1020.8 0.0
14/12:00pm 22.1 15.4 -10.9 10 12.6 SW 19 32 10 17 1022.9 1021.4 0.0
14/11:30am 20.8 15.2 -6.7 15 11.2 SW 15 28 8 15 1023.5 1022.0 0.0
14/11:00am 20.2 14.8 -4.8 18 10.5 SW 15 24 8 13 1023.9 1022.4 0.0
14/10:30am 19.1 13.3 -4.4 20 9.9 WSW 17 28 9 15 1024.1 1022.7 0.0
14/10:00am 18.9 14.0 -3.3 22 9.5 WSW 13 24 7 13 1024.4 1023.0 0.0
14/09:30am 17.9 12.2 -4.1 22 9.2 WSW 17 28 9 15 1024.7 1023.2 0.0
14/09:00am 17.1 11.9 -2.5 26 8.4 W 15 28 8 15 1024.7 1023.2 0.0
14/08:30am 13.8 11.4 2.1 45 5.4 SSW 4 7 2 4 1024.9 1023.4 0.0
14/08:00am 10.7 8.0 2.5 57 3.7 S 6 7 3 4 1024.9 1023.4 0.0
14/07:30am 8.3 6.4 4.9 79 1.6 SW 4 6 2 3 1024.6 1023.1 0.0
14/07:24am 7.9 6.1 5.5 85 1.1 SW 4 6 2 3 1024.4 1023.0 0.0
14/07:00am 2.8 1.1 2.1 95 0.3 CALM 0 0 0 0 1024.0 1022.5 0.0
14/06:30am 0.3 -1.8 -1.0 91 0.5 CALM 0 0 0 0 1023.7 1022.2 0.0
14/06:00am -0.4 -2.6 -1.8 90 0.5 CALM 0 0 0 0 1023.8 1022.3 0.0
14/05:30am -0.2 -2.4 -1.6 90 0.5 CALM 0 0 0 0 1023.5 1022.0 0.0
14/05:00am 0.2 -2.0 -1.2 90 0.5 CALM 0 0 0 0 1023.2 1021.8 0.0
14/04:30am 0.1 -2.1 -1.5 89 0.6 CALM 0 0 0 0 1023.1 1021.7 0.0
14/04:00am 0.6 -1.6 -1.2 88 0.7 CALM 0 0 0 0 1023.2 1021.8 0.0
14/03:30am 1.0 -1.1 -0.8 88 0.7 CALM 0 0 0 0 1023.1 1021.7 0.0
14/03:00am 1.1 -1.0 -1.1 85 0.8 CALM 0 0 0 0 1023.2 1021.8 0.0
14/02:30am 2.1 0.1 0.2 87 0.7 CALM 0 0 0 0 1023.5 1022.0 0.0
14/02:00am 2.3 0.3 0.0 85 0.9 CALM 0 0 0 0 1023.6 1022.1 0.0
14/01:30am 3.1 1.2 0.5 83 1.0 CALM 0 0 0 0 1023.9 1022.4 0.0
14/01:00am 3.9 2.1 1.3 83 1.1 CALM 0 2 0 1 1024.1 1022.7 0.0
14/12:30am 5.0 3.5 2.9 86 0.9 CALM 0 0 0 0 1024.6 1023.1 0.0
14/12:00am 5.4 3.5 2.9 84 1.1 NE 2 4 1 2 1024.7 1023.2 0.0
 
Date/Time
EST
Temp
°C
App
Temp
°C
Dew
Point
°C
Rel
Hum
%
Delta-T
°C
Wind Press
QNH
hPa
Press
MSL
hPa
Rain since
9am
mm
Dir  Spd
km/h
Gust
km/h
Spd
kts
Gust
kts
13/11:30pm 6.1 4.7 3.4 83 1.2 CALM 0 0 0 0 1024.9 1023.4 0.0
13/11:00pm 5.7 3.7 2.4 79 1.4 E 2 4 1 2 1025.1 1023.6 0.0
13/10:30pm 7.0 5.3 3.8 80 1.4 NE 2 2 1 1 1025.0 1023.5 0.0
13/10:00pm 7.3 5.9 3.7 78 1.6 CALM 0 2 0 1 1024.8 1023.3 0.0
13/09:30pm 7.7 6.0 3.9 77 1.7 NE 2 4 1 2 1024.7 1023.2 0.0
13/09:00pm 7.8 5.4 2.1 67 2.5 NE 4 6 2 3 1024.3 1022.9 0.0
13/08:30pm 8.5 6.4 1.6 62 3.0 NE 2 4 1 2 1024.6 1023.1 0.0
13/08:00pm 9.4 7.6 1.3 57 3.5 CALM 0 0 0 0 1024.4 1023.0 0.0
13/07:30pm 10.3 8.2 -0.5 47 4.5 CALM 0 2 0 1 1024.4 1023.0 0.0
13/07:00pm 12.7 10.1 -1.6 37 6.0 ENE 2 4 1 2 1024.0 1022.5 0.0
13/06:30pm 14.2 11.5 -2.7 31 7.0 E 2 6 1 3 1023.5 1022.0 0.0
13/06:00pm 16.1 12.5 -2.4 28 7.9 ENE 7 15 4 8 1023.0 1021.5 0.0
13/05:30pm 17.8 13.1 -4.8 21 9.3 E 11 24 6 13 1022.6 1021.1 0.0
13/05:00pm 19.4 15.1 -8.7 14 10.9 E 7 15 4 8 1022.3 1020.8 0.0
13/04:30pm 20.6 16.0 -7.8 14 11.3 E 9 22 5 12 1021.9 1020.4 0.0
13/04:00pm 21.9 16.9 -8.7 12 12.2 ENE 11 20 6 11 1021.4 1019.9 0.0
13/03:30pm 22.9 18.5 -10.3 10 12.9 S 7 13 4 7 1021.0 1019.4 0.0
13/03:00pm 23.0 18.8 -10.2 10 13.0 SE 6 13 3 7 1020.9 1019.3 0.0
13/02:30pm 22.8 17.3 -9.2 11 12.7 SW 13 20 7 11 1021.1 1019.5 0.0
13/02:00pm 22.6 17.9 -9.3 11 12.6 S 9 17 5 9 1021.2 1019.7 0.0
13/01:30pm 22.2 17.2 -8.5 12 12.3 SW 11 22 6 12 1021.5 1020.0 0.0
13/01:00pm 22.2 17.6 -7.5 13 12.1 SW 9 19 5 10 1021.7 1020.2 0.0
13/12:30pm 21.5 16.0 -9.1 12 12.0 SW 13 19 7 10 1022.0 1020.5 0.0
13/12:00pm 20.6 14.7 -9.8 12 11.7 SSW 15 28 8 15 1022.4 1020.9 0.0
13/11:30am 20.5 15.4 -9.8 12 11.6 WSW 11 22 6 12 1022.7 1021.2 0.0
13/11:00am 20.9 14.7 -9.5 12 11.8 WSW 17 30 9 16 1023.1 1021.7 0.0
13/10:30am 20.2 14.7 -9.1 13 11.4 SW 13 24 7 13 1023.1 1021.7 0.0

Other formats

Comma delimited format used in spreadsheet applications
http://www.bom.gov.au/fwo/IDN60801/IDN60801.94553.axf

JavaScript Object Notation format (JSON) in row-major order
http://www.bom.gov.au/fwo/IDN60801/IDN60801.94553.json

Data quality

Most of these data are generated automatically and are frequently updated. Quality checks on data are not normally performed. It is possible for incorrect values to appear. Refer to information at About Latest Weather Observations and please check the disclaimer before using these data.